This is the latest recevied weather packets stored in our database for station/object PU2ONU-13. If no packets are shown the sender has not sent any weather packets the latest 10 day(s).
| Time | Temp. | Humidity | Pressure | Rain* | Wind** | Luminosity | Snow |
|---|---|---|---|---|---|---|---|
| 1777731612 | 28.89° C | 39% | 1021 hPa | - | - | - | - |
| 1777728014 | 28.33° C | 43% | 1021 hPa | - | - | - | - |
| 1777725612 | 29.44° C | 44% | 1021 hPa | - | - | - | - |
| 1777724415 | 30.56° C | 41% | 1021 hPa | - | - | - | - |
| 1777722013 | 30° C | 41% | 1020 hPa | - | - | - | - |
| 1777720812 | 28.33° C | 44% | 1020 hPa | - | - | - | - |
| 1777719642 | 27.78° C | 45% | 1019 hPa | - | - | - | - |
| 1777718412 | 27.78° C | 45% | 1019 hPa | - | - | - | - |
| 1777717213 | 26.67° C | 47% | 1019 hPa | - | - | - | - |
| 1777716014 | 27.22° C | 45% | 1018 hPa | - | - | - | - |
| 1777714813 | 26.67° C | 47% | 1018 hPa | - | - | - | - |
| 1777713613 | 27.22° C | 46% | 1018 hPa | - | - | - | - |
| 1777712412 | 27.22° C | 47% | 1017 hPa | - | - | - | - |
| 1777711213 | 26.67° C | 47% | 1017 hPa | - | - | - | - |
| 1777710013 | 27.22° C | 46% | 1017 hPa | - | - | - | - |
| 1777707613 | 27.22° C | 47% | 1017 hPa | - | - | - | - |
| 1777706413 | 27.78° C | 46% | 1017 hPa | - | - | - | - |
| 1777705213 | 27.78° C | 46% | 1016 hPa | - | - | - | - |
| 1777704013 | 27.78° C | 47% | 1017 hPa | - | - | - | - |
| 1777702814 | 28.33° C | 46% | 1017 hPa | - | - | - | - |
| 1777701613 | 28.33° C | 45% | 1017 hPa | - | - | - | - |
| 1777700413 | 28.89° C | 44% | 1017 hPa | - | - | - | - |
| 1777699213 | 28.89° C | 45% | 1018 hPa | - | - | - | - |
| 1777698014 | 28.89° C | 45% | 1017 hPa | - | - | - | - |
| 1777696813 | 28.33° C | 46% | 1017 hPa | - | - | - | - |
* Rain since midnight (hover to see other rain measurements)
** Current wind speed in m/s (hover to see current wind gust speed)